Time;durP1;ratioP1;P1;durP2;ratioP2;P2;SDS_P1;SDS_P2;PMS_P1;PMS_P2;Temp;Humidity;BMP_temperature;BMP_pressure;BME280_temperature;BME280_humidity;BME280_pressure;Samples;Min_cycle;Max_cycle;Signal;HPM_P1;HPM_P2
2022/03/16 00:02:25;;;;;;;7.20;3.30;;;;;;;-2.56;45.10;101274.78;5033844;28;20045;-63
2022/03/16 00:04:54;;;;;;;8.77;3.33;;;;;;;-2.55;45.83;101278.38;5033354;28;20072;-63
2022/03/16 00:07:23;;;;;;;6.63;3.70;;;;;;;-2.54;45.72;101269.13;5033707;28;20183;-63
2022/03/16 00:09:50;;;;;;;6.43;3.40;;;;;;;-2.54;45.31;101278.16;5033340;28;20077;-64
2022/03/16 00:12:17;;;;;;;11.90;3.30;;;;;;;-2.56;45.46;101285.69;5033822;28;20061;-66
2022/03/16 00:14:44;;;;;;;6.13;3.25;;;;;;;-2.57;45.43;101278.56;5031697;28;20057;-64
2022/03/16 00:17:11;;;;;;;7.55;3.47;;;;;;;-2.59;45.77;101291.53;5034463;28;20077;-65
2022/03/16 00:19:40;;;;;;;17.80;4.25;;;;;;;-2.61;45.61;101288.19;5032765;28;20088;-65
2022/03/16 00:22:07;;;;;;;6.70;3.80;;;;;;;-2.59;46.15;101288.81;5031360;28;20054;-65
2022/03/16 00:24:34;;;;;;;7.80;3.30;;;;;;;-2.60;45.63;101289.84;5032965;28;20107;-65
2022/03/16 00:27:02;;;;;;;7.45;3.50;;;;;;;-2.64;45.97;101274.13;5033397;28;20133;-66
2022/03/16 00:29:30;;;;;;;12.50;4.05;;;;;;;-2.60;45.20;101281.66;5032978;28;20091;-65
2022/03/16 00:32:02;;;;;;;6.88;3.75;;;;;;;-2.59;45.87;101288.81;5032693;28;20053;-65
2022/03/16 00:34:30;;;;;;;11.15;4.22;;;;;;;-2.62;46.02;101286.50;5033109;28;20447;-65
2022/03/16 00:36:58;;;;;;;6.05;3.67;;;;;;;-2.61;45.77;101285.44;5031304;28;20049;-65
2022/03/16 00:39:26;;;;;;;8.95;3.50;;;;;;;-2.61;46.30;101293.63;5033539;28;20513;-64
2022/03/16 00:41:53;;;;;;;6.63;3.60;;;;;;;-2.62;46.00;101286.50;5031508;28;20508;-64
2022/03/16 00:44:20;;;;;;;8.32;3.78;;;;;;;-2.67;46.15;101289.00;5033214;28;20132;-65
2022/03/16 00:46:47;;;;;;;9.00;3.72;;;;;;;-2.69;45.74;101291.06;5032579;28;20053;-64
2022/03/16 00:49:14;;;;;;;8.10;3.88;;;;;;;-2.72;46.25;101290.66;5032932;28;20076;-65
2022/03/16 00:51:41;;;;;;;8.35;3.45;;;;;;;-2.73;45.61;101292.53;5032822;28;20132;-66
2022/03/16 00:54:08;;;;;;;6.75;3.30;;;;;;;-2.77;46.32;101284.97;5033408;28;20054;-65
2022/03/16 00:56:35;;;;;;;9.95;3.80;;;;;;;-2.74;46.34;101298.19;5032507;28;20081;-65
2022/03/16 00:59:02;;;;;;;5.47;2.92;;;;;;;-2.84;46.11;101298.56;5031285;28;20061;-64
2022/03/16 01:01:29;;;;;;;9.75;3.78;;;;;;;-2.88;46.80;101302.75;5032651;28;20053;-65
2022/03/16 01:03:56;;;;;;;10.77;3.60;;;;;;;-2.91;46.43;101303.16;5032889;28;20073;-65
2022/03/16 01:06:23;;;;;;;9.60;3.35;;;;;;;-2.92;46.95;101295.19;5032150;28;20057;-64
2022/03/16 01:08:50;;;;;;;8.48;3.55;;;;;;;-2.90;46.88;101293.91;5032251;28;20073;-65
2022/03/16 01:11:18;;;;;;;7.97;3.35;;;;;;;-2.92;46.38;101290.59;5032427;28;20053;-65
2022/03/16 01:13:45;;;;;;;8.45;4.00;;;;;;;-2.93;47.09;101297.06;5014547;28;20504;-64
2022/03/16 01:16:12;;;;;;;12.85;3.35;;;;;;;-2.94;46.91;101298.09;5032965;28;20500;-64
2022/03/16 01:18:39;;;;;;;8.93;3.35;;;;;;;-2.95;46.98;101304.59;5030521;28;20046;-65
2022/03/16 01:21:07;;;;;;;8.57;3.90;;;;;;;-2.95;47.31;101295.59;5029729;28;20082;-64
2022/03/16 01:23:36;;;;;;;9.00;3.47;;;;;;;-2.97;47.18;101287.63;5013282;28;20045;-64
2022/03/16 01:26:04;;;;;;;10.20;3.80;;;;;;;-2.97;47.09;101295.78;5032505;28;20487;-65
2022/03/16 01:28:31;;;;;;;6.20;3.50;;;;;;;-2.95;46.91;101295.59;5031923;28;20049;-65
2022/03/16 01:31:01;;;;;;;9.02;3.92;;;;;;;-2.97;47.49;101301.22;5032601;28;20448;-65
2022/03/16 01:33:29;;;;;;;7.90;3.10;;;;;;;-2.99;46.98;101300.59;5031900;28;20045;-65
2022/03/16 01:35:56;;;;;;;7.07;3.75;;;;;;;-3.01;46.95;101297.25;5032263;28;20050;-65
2022/03/16 01:38:24;;;;;;;7.05;3.53;;;;;;;-3.02;46.81;101305.63;5031755;28;20081;-65
2022/03/16 01:40:51;;;;;;;8.95;3.45;;;;;;;-3.04;47.28;101308.53;5032042;28;20076;-65
2022/03/16 01:43:18;;;;;;;9.45;3.90;;;;;;;-3.05;47.25;101306.00;5030159;28;20041;-65
2022/03/16 01:45:50;;;;;;;11.90;3.63;;;;;;;-3.04;46.84;101307.69;5032388;28;20489;-65
2022/03/16 01:48:18;;;;;;;6.93;3.72;;;;;;;-3.09;47.81;101302.84;5031905;28;20045;-66
2022/03/16 01:50:46;;;;;;;5.80;3.05;;;;;;;-3.08;48.02;101307.25;5031992;28;20509;-65
2022/03/16 01:53:15;;;;;;;9.07;3.83;;;;;;;-3.09;47.59;101310.16;5031649;28;20045;-65
2022/03/16 01:55:43;;;;;;;9.27;3.65;;;;;;;-3.12;48.11;101311.41;5031610;28;20444;-64
2022/03/16 01:58:10;;;;;;;10.73;3.95;;;;;;;-3.13;47.72;101309.75;5031682;28;20132;-65
2022/03/16 02:00:39;;;;;;;12.55;4.22;;;;;;;-3.14;47.46;101305.31;5032049;28;20515;-65
2022/03/16 02:03:07;;;;;;;13.65;5.85;;;;;;;-3.16;48.17;101309.28;5032185;28;20540;-65
2022/03/16 02:05:38;;;;;;;8.73;4.05;;;;;;;-3.19;47.99;101307.81;5031594;28;20164;-65
2022/03/16 02:08:08;;;;;;;12.00;3.92;;;;;;;-3.21;47.82;101300.88;5032198;28;20060;-65
2022/03/16 02:10:35;;;;;;;9.52;4.13;;;;;;;-3.25;48.50;101299.63;5031718;28;20069;-65
2022/03/16 02:13:03;;;;;;;8.02;4.40;;;;;;;-3.29;48.20;101307.31;5030618;28;20148;-65
2022/03/16 02:15:30;;;;;;;11.43;4.75;;;;;;;-3.31;48.06;101304.00;5030250;28;20045;-65
2022/03/16 02:17:57;;;;;;;11.43;4.25;;;;;;;-3.34;48.66;101307.09;5031920;28;20140;-65
2022/03/16 02:20:27;;;;;;;9.35;4.50;;;;;;;-3.37;48.71;101302.06;5032001;28;20076;-65
2022/03/16 02:22:58;;;;;;;6.65;3.22;;;;;;;-3.38;48.45;101300.38;5029231;28;20049;-65
2022/03/16 02:25:26;;;;;;;12.43;3.53;;;;;;;-3.39;48.59;101300.56;5035356;28;20080;-65
2022/03/16 02:27:53;;;;;;;7.28;3.95;;;;;;;-3.39;48.66;101295.97;5035704;28;20076;-65
2022/03/16 02:30:22;;;;;;;8.02;4.15;;;;;;;-3.36;48.44;101308.31;5034968;28;20053;-65
2022/03/16 02:32:49;;;;;;;13.75;3.97;;;;;;;-3.35;48.61;101304.59;5035353;28;20104;-65
2022/03/16 02:35:16;;;;;;;8.38;4.00;;;;;;;-3.34;48.61;101309.84;5035005;28;20049;-64
2022/03/16 02:37:44;;;;;;;5.47;3.10;;;;;;;-3.33;48.49;101303.34;5035617;28;20136;-64
2022/03/16 02:40:17;;;;;;;8.55;3.92;;;;;;;-3.29;48.98;101306.50;5034762;28;20133;-63
2022/03/16 02:42:44;;;;;;;7.18;3.55;;;;;;;-3.34;48.42;101301.66;5032678;28;20167;-63
2022/03/16 02:45:11;;;;;;;9.10;4.13;;;;;;;-3.32;48.97;101310.44;5034554;28;20104;-63
2022/03/16 02:47:40;;;;;;;12.02;3.45;;;;;;;-3.36;48.44;101314.63;5035330;28;20136;-63
2022/03/16 02:50:08;;;;;;;8.57;3.38;;;;;;;-3.37;48.83;101314.81;5034621;28;20054;-64
2022/03/16 02:52:35;;;;;;;17.73;4.43;;;;;;;-3.41;48.82;101311.66;5035039;28;20080;-64
2022/03/16 02:55:03;;;;;;;10.13;3.35;;;;;;;-3.41;48.62;101319.81;5035022;28;20155;-63
2022/03/16 02:57:31;;;;;;;6.65;3.65;;;;;;;-3.43;48.91;101313.75;5034769;28;20075;-63
2022/03/16 02:59:57;;;;;;;9.40;4.45;;;;;;;-3.42;48.82;101309.97;5034701;28;20455;-63
2022/03/16 03:02:25;;;;;;;11.77;4.18;;;;;;;-3.42;48.91;101320.00;5034545;28;20045;-63
2022/03/16 03:04:52;;;;;;;6.63;3.22;;;;;;;-3.46;49.38;101311.44;5034761;28;20049;-63
2022/03/16 03:07:19;;;;;;;13.73;4.40;;;;;;;-3.51;49.12;101315.75;5034590;28;20073;-64
2022/03/16 03:09:46;;;;;;;7.53;3.17;;;;;;;-3.49;48.83;101324.56;5034768;28;20041;-63
2022/03/16 03:12:16;;;;;;;7.47;3.85;;;;;;;-3.49;49.78;101321.84;5034503;28;20056;-64
2022/03/16 03:14:43;;;;;;;9.77;3.85;;;;;;;-3.52;48.57;101320.38;5034564;28;20524;-64
2022/03/16 03:17:10;;;;;;;7.30;3.60;;;;;;;-3.51;49.42;101322.03;5032252;28;20148;-63
2022/03/16 03:19:37;;;;;;;8.13;3.95;;;;;;;-3.53;49.04;101323.28;5034719;28;20053;-63
2022/03/16 03:22:05;;;;;;;13.05;4.40;;;;;;;-3.54;49.64;101330.59;5034273;28;20057;-63
2022/03/16 03:24:32;;;;;;;6.80;3.58;;;;;;;-3.56;49.80;101331.84;5034342;28;20095;-63
2022/03/16 03:27:00;;;;;;;10.57;4.20;;;;;;;-3.61;50.03;101332.44;5034266;28;20451;-63
2022/03/16 03:29:27;;;;;;;10.07;4.70;;;;;;;-3.57;49.43;101332.88;5031100;28;20057;-64
2022/03/16 03:31:54;;;;;;;11.40;4.22;;;;;;;-3.55;49.62;101330.81;5033752;28;20099;-65
2022/03/16 03:34:21;;;;;;;8.48;4.40;;;;;;;-3.58;49.96;101332.06;5034194;28;20099;-65
2022/03/16 03:36:48;;;;;;;9.88;3.50;;;;;;;-3.60;49.77;101328.69;5034477;28;20053;-63
2022/03/16 03:39:15;;;;;;;9.98;3.97;;;;;;;-3.68;49.65;101320.66;5034041;28;20084;-63
2022/03/16 03:41:43;;;;;;;9.25;4.45;;;;;;;-3.65;50.41;101338.47;5034916;28;20052;-64
2022/03/16 03:44:10;;;;;;;10.98;4.53;;;;;;;-3.61;49.97;101332.44;5033667;28;20087;-64
2022/03/16 03:46:37;;;;;;;8.30;3.67;;;;;;;-3.61;49.99;101340.59;5034323;28;20491;-63
2022/03/16 03:49:04;;;;;;;6.97;3.30;;;;;;;-3.60;50.09;101355.88;5034074;28;20131;-66
2022/03/16 03:51:31;;;;;;;9.65;4.15;;;;;;;-3.56;50.15;101340.84;5034253;28;20037;-66
2022/03/16 03:53:57;;;;;;;6.80;3.65;;;;;;;-3.58;50.42;101347.50;5033743;28;20053;-66
2022/03/16 03:56:24;;;;;;;10.85;4.32;;;;;;;-3.58;50.22;101353.81;5034031;28;20045;-66
2022/03/16 03:58:51;;;;;;;6.70;3.97;;;;;;;-3.56;50.04;101342.72;5032015;28;20107;-66
2022/03/16 04:01:18;;;;;;;11.38;3.75;;;;;;;-3.52;50.36;101342.13;5033925;28;20076;-66
2022/03/16 04:03:46;;;;;;;6.93;4.13;;;;;;;-3.51;49.75;101353.84;5024216;28;20049;-66
2022/03/16 04:06:13;;;;;;;11.18;4.80;;;;;;;-3.51;50.39;101351.97;5030328;28;20045;-65
2022/03/16 04:08:40;;;;;;;11.75;4.43;;;;;;;-3.49;50.02;101347.19;5033282;28;20087;-66
2022/03/16 04:11:07;;;;;;;10.10;4.72;;;;;;;-3.52;50.50;101355.72;5033772;28;20080;-66
2022/03/16 04:13:34;;;;;;;11.80;5.35;;;;;;;-3.49;50.63;101351.78;5033479;28;20471;-65
2022/03/16 04:16:01;;;;;;;11.95;5.53;;;;;;;-3.44;50.30;101360.19;5029294;28;20076;-65
2022/03/16 04:18:28;;;;;;;12.02;5.97;;;;;;;-3.40;49.90;101361.47;5033949;28;20086;-67
2022/03/16 04:20:55;;;;;;;12.15;5.22;;;;;;;-3.33;50.16;101363.19;5032337;28;20077;-63
2022/03/16 04:23:22;;;;;;;16.55;6.65;;;;;;;-3.33;50.39;101368.63;5033934;28;20060;-62
2022/03/16 04:25:49;;;;;;;14.75;6.35;;;;;;;-3.27;50.26;101370.56;5032866;28;20539;-63
2022/03/16 04:28:16;;;;;;;12.65;5.72;;;;;;;-3.28;50.06;101374.31;5033636;28;20057;-63
2022/03/16 04:30:43;;;;;;;16.20;5.97;;;;;;;-3.22;50.12;101381.69;5032715;28;20092;-64
2022/03/16 04:33:10;;;;;;;12.38;5.90;;;;;;;-3.17;50.25;101390.09;5033195;28;20053;-63
2022/03/16 04:35:37;;;;;;;15.77;5.85;;;;;;;-3.06;50.05;101369.63;5032514;28;20488;-63
2022/03/16 04:38:04;;;;;;;13.25;6.13;;;;;;;-3.02;49.82;101376.38;5032207;28;20081;-63
2022/03/16 04:40:31;;;;;;;15.57;6.55;;;;;;;-2.87;49.53;101377.91;5032877;28;20084;-64
2022/03/16 04:42:58;;;;;;;13.77;6.00;;;;;;;-2.74;49.27;101385.31;5031954;28;20042;-62
2022/03/16 04:45:25;;;;;;;11.48;6.00;;;;;;;-2.65;49.26;101386.84;5032786;28;20053;-64
2022/03/16 04:47:52;;;;;;;19.98;7.28;;;;;;;-2.59;49.73;101384.16;5030418;28;20390;-66
2022/03/16 04:50:20;;;;;;;11.05;5.95;;;;;;;-2.54;49.64;101386.28;5032688;28;20080;-66
2022/03/16 04:52:48;;;;;;;16.92;6.35;;;;;;;-2.46;49.29;101381.47;5032530;28;20501;-67
2022/03/16 04:55:15;;;;;;;11.00;5.85;;;;;;;-2.40;49.17;101394.28;5032711;28;20107;-66
2022/03/16 04:57:42;;;;;;;12.77;5.75;;;;;;;-2.31;49.29;101387.63;5032560;28;20053;-66
2022/03/16 05:00:10;;;;;;;14.07;5.90;;;;;;;-2.22;49.35;101389.09;5032469;28;20155;-66
2022/03/16 05:02:37;;;;;;;15.95;6.75;;;;;;;-2.16;49.35;101382.84;5032328;28;20103;-66
2022/03/16 05:05:05;;;;;;;13.55;6.53;;;;;;;-2.12;49.18;101395.03;5032239;28;20100;-66
2022/03/16 05:07:32;;;;;;;16.35;6.72;;;;;;;-2.10;49.09;101395.66;5032293;28;20053;-67
2022/03/16 05:09:59;;;;;;;14.27;6.55;;;;;;;-2.04;49.07;101400.28;5032368;28;20135;-67
2022/03/16 05:12:26;;;;;;;15.50;6.35;;;;;;;-1.96;48.49;101402.81;5032322;28;20060;-65
2022/03/16 05:14:54;;;;;;;13.13;6.65;;;;;;;-1.83;48.85;101391.94;5031462;28;20147;-65
2022/03/16 05:17:21;;;;;;;13.55;6.18;;;;;;;-1.77;48.06;101394.88;5032230;28;20081;-66
2022/03/16 05:19:48;;;;;;;15.13;6.47;;;;;;;-1.48;47.88;101394.50;5032151;28;20416;-66
2022/03/16 05:22:15;;;;;;;12.10;6.97;;;;;;;-1.07;46.75;101393.19;5032011;28;20075;-65
2022/03/16 05:24:42;;;;;;;13.70;6.68;;;;;;;-0.88;46.51;101392.34;5032085;28;20508;-66
2022/03/16 05:27:10;;;;;;;11.27;6.70;;;;;;;-0.59;45.97;101391.00;5032016;28;20175;-66
2022/03/16 05:29:37;;;;;;;13.45;7.32;;;;;;;-0.05;44.94;101389.47;5030427;28;20496;-65
2022/03/16 05:32:04;;;;;;;15.95;8.80;;;;;;;0.36;44.28;101394.53;5032623;28;20497;-66
2022/03/16 05:34:31;;;;;;;22.55;9.27;;;;;;;0.90;43.45;101391.13;5023089;28;20049;-62
2022/03/16 05:36:59;;;;;;;18.30;7.78;;;;;;;1.47;42.73;101396.22;5032463;28;20052;-63
2022/03/16 05:39:26;;;;;;;16.00;7.63;;;;;;;2.07;41.10;101394.41;5031335;28;20153;-65
2022/03/16 05:41:53;;;;;;;16.70;6.93;;;;;;;3.19;39.90;101392.34;5031744;28;20046;-63
2022/03/16 05:44:20;;;;;;;18.42;7.43;;;;;;;3.23;39.18;101393.56;5031935;28;20055;-65
2022/03/16 05:46:47;;;;;;;16.55;7.38;;;;;;;2.37;40.69;101395.25;5028502;28;20591;-65
2022/03/16 05:49:14;;;;;;;14.88;8.05;;;;;;;2.28;41.19;101399.38;5031544;28;20172;-65
2022/03/16 05:51:41;;;;;;;14.27;7.28;;;;;;;3.11;39.82;101404.56;5031826;28;20045;-67
2022/03/16 05:54:08;;;;;;;20.33;6.97;;;;;;;4.45;37.73;101399.47;5031390;28;20084;-67
2022/03/16 05:56:35;;;;;;;18.15;8.20;;;;;;;5.94;34.84;101404.00;5031920;28;20049;-65
2022/03/16 05:59:02;;;;;;;14.88;7.25;;;;;;;4.83;36.26;101402.31;5031094;28;20057;-66
2022/03/16 06:01:30;;;;;;;13.60;7.10;;;;;;;3.68;37.98;101397.34;5031847;28;20053;-66
2022/03/16 06:03:57;;;;;;;15.30;6.18;;;;;;;3.45;38.85;101397.38;5031724;28;20103;-65
2022/03/16 06:06:26;;;;;;;12.25;6.35;;;;;;;5.11;35.74;101396.75;5031602;28;20049;-65
2022/03/16 06:08:53;;;;;;;14.73;6.57;;;;;;;7.54;32.37;101391.69;5031770;28;20122;-65
2022/03/16 06:11:20;;;;;;;11.80;6.53;;;;;;;8.54;31.04;101394.94;5031038;28;20140;-65
2022/03/16 06:13:47;;;;;;;18.23;8.23;;;;;;;8.48;30.64;101403.50;5031827;28;20509;-65
2022/03/16 06:16:14;;;;;;;14.43;5.85;;;;;;;8.42;30.80;101397.13;5031596;28;20136;-64
2022/03/16 06:18:41;;;;;;;14.20;6.68;;;;;;;9.32;29.80;101408.28;5031533;28;20547;-65
2022/03/16 06:21:08;;;;;;;11.02;6.47;;;;;;;11.33;27.34;101396.16;5031093;28;20046;-65
2022/03/16 06:23:35;;;;;;;11.73;6.20;;;;;;;13.42;25.05;101401.22;5023292;28;20087;-65
2022/03/16 06:26:05;;;;;;;14.05;6.72;;;;;;;14.75;22.83;101400.75;5031232;28;20148;-66
2022/03/16 06:28:32;;;;;;;12.52;6.03;;;;;;;16.41;21.67;101392.34;5030337;28;20132;-65
2022/03/16 06:30:59;;;;;;;18.58;7.78;;;;;;;17.81;20.09;101408.59;5031129;28;20492;-65
2022/03/16 06:33:27;;;;;;;12.68;7.05;;;;;;;17.74;19.51;101394.22;5031352;28;20108;-66
2022/03/16 06:35:54;;;;;;;17.88;6.55;;;;;;;17.41;19.82;101405.16;5030857;28;20072;-65
2022/03/16 06:38:21;;;;;;;10.02;6.40;;;;;;;17.50;18.63;101397.56;5030012;28;20045;-66
2022/03/16 06:40:48;;;;;;;20.77;10.43;;;;;;;16.81;18.74;101395.09;5031191;28;20136;-66
2022/03/16 06:43:15;;;;;;;12.88;5.28;;;;;;;15.50;19.06;101409.28;5031559;28;20049;-65
2022/03/16 06:45:42;;;;;;;12.38;4.97;;;;;;;15.66;18.61;101402.94;5031636;28;20049;-66
2022/03/16 06:48:09;;;;;;;11.30;5.78;;;;;;;16.69;17.98;101414.59;5031057;28;20461;-65
2022/03/16 06:50:37;;;;;;;11.85;5.63;;;;;;;16.30;18.25;101407.84;5031607;28;20050;-65
2022/03/16 06:53:04;;;;;;;10.13;6.35;;;;;;;12.59;20.79;101421.47;5031036;28;20124;-66
2022/03/16 06:55:31;;;;;;;10.27;5.15;;;;;;;10.97;23.17;101417.06;5031534;28;20045;-65
2022/03/16 06:57:58;;;;;;;11.48;5.85;;;;;;;11.21;22.32;101419.94;5030796;28;20076;-65
2022/03/16 07:00:25;;;;;;;13.95;7.10;;;;;;;10.06;23.83;101429.78;5013567;28;20160;-65
2022/03/16 07:02:57;;;;;;;10.57;6.45;;;;;;;10.86;23.58;101423.84;5030639;28;20079;-65
2022/03/16 07:05:27;;;;;;;11.75;6.43;;;;;;;10.77;23.74;101431.13;5031413;28;20596;-66
2022/03/16 07:07:56;;;;;;;21.85;6.80;;;;;;;10.87;23.19;101426.31;5032947;28;20077;-65
2022/03/16 07:10:23;;;;;;;11.80;6.30;;;;;;;10.91;22.53;101429.38;5035045;28;20081;-66
2022/03/16 07:12:50;;;;;;;15.68;6.60;;;;;;;11.33;22.13;101428.75;5034633;28;20519;-65
2022/03/16 07:15:17;;;;;;;11.18;7.07;;;;;;;11.79;21.85;101430.03;5034427;28;20057;-64
2022/03/16 07:17:45;;;;;;;12.00;6.65;;;;;;;11.90;21.67;101423.22;5034494;28;20111;-66
2022/03/16 07:20:12;;;;;;;13.65;6.57;;;;;;;11.68;21.98;101437.66;5033434;28;20049;-66
2022/03/16 07:22:39;;;;;;;14.93;5.82;;;;;;;11.91;21.81;101439.66;5033748;28;20080;-65
2022/03/16 07:25:21;;;;;;;11.23;5.15;;;;;;;12.45;21.15;101426.16;5027624;28;20512;-66
2022/03/16 07:27:49;;;;;;;8.57;5.10;;;;;;;11.34;22.42;101424.88;5033730;28;20057;-65
2022/03/16 07:30:17;;;;;;;16.55;6.63;;;;;;;11.67;21.88;101429.59;5034363;28;20055;-65
2022/03/16 07:32:44;;;;;;;13.98;6.15;;;;;;;12.30;21.26;101429.16;5033879;28;20045;-66
2022/03/16 07:35:12;;;;;;;13.90;5.90;;;;;;;12.67;21.14;101426.41;5034329;28;20045;-67
2022/03/16 07:37:40;;;;;;;10.63;5.55;;;;;;;13.58;20.02;101427.75;5030940;28;20045;-65
2022/03/16 07:40:07;;;;;;;11.73;6.18;;;;;;;13.62;19.89;101429.63;5034051;28;20132;-66
2022/03/16 07:42:35;;;;;;;13.05;6.53;;;;;;;13.27;19.64;101419.09;5033970;28;20056;-65
2022/03/16 07:45:05;;;;;;;18.85;6.43;;;;;;;12.38;20.58;101414.50;5033851;28;20073;-65
2022/03/16 07:47:32;;;;;;;;;;;;;;;10.63;21.77;101438.47;5034640;28;20049;-66
2022/03/16 07:50:08;;;;;;;10.63;6.25;;;;;;;9.90;23.06;101419.84;5033231;28;19925;-66
2022/03/16 07:52:35;;;;;;;12.75;5.63;;;;;;;10.83;21.94;101429.97;5033883;28;20168;-65
2022/03/16 07:55:03;;;;;;;8.40;5.25;;;;;;;11.68;21.68;101426.50;5030451;28;20137;-65
2022/03/16 07:57:30;;;;;;;11.75;5.60;;;;;;;12.14;20.93;101424.06;5033952;28;20099;-66
2022/03/16 07:59:57;;;;;;;10.75;6.25;;;;;;;12.80;19.94;101422.03;5031999;28;20064;-66
2022/03/16 08:02:26;;;;;;;11.48;5.97;;;;;;;13.44;19.17;101410.13;5033735;28;20508;-65
2022/03/16 08:04:57;;;;;;;10.90;5.75;;;;;;;13.93;18.53;101401.91;5028700;28;20049;-66
2022/03/16 08:07:28;;;;;;;14.70;8.25;;;;;;;14.58;18.22;101423.81;5032799;28;20054;-66
2022/03/16 08:09:59;;;;;;;12.73;6.75;;;;;;;15.08;18.08;101420.97;5032218;28;20107;-65
2022/03/16 08:12:27;;;;;;;32.83;15.10;;;;;;;15.38;17.52;101411.81;5033146;28;20049;-66
2022/03/16 08:14:54;;;;;;;12.15;6.18;;;;;;;14.64;18.00;101421.72;5029189;28;20107;-65
2022/03/16 08:17:22;;;;;;;9.63;6.15;;;;;;;14.79;18.00;101415.75;5031218;28;20477;-66
2022/03/16 08:19:49;;;;;;;9.73;5.82;;;;;;;14.71;17.80;101418.50;5025260;28;20080;-65
2022/03/16 08:22:37;;;;;;;12.80;5.90;;;;;;;14.55;18.21;101423.59;5028434;28;20124;-66
2022/03/16 08:25:07;;;;;;;16.05;6.10;;;;;;;14.81;18.48;101424.69;5030445;28;20037;-66
2022/03/16 08:27:35;;;;;;;11.68;6.20;;;;;;;15.84;17.62;101415.91;5026601;28;20045;-65
2022/03/16 08:30:03;;;;;;;12.70;5.50;;;;;;;17.04;16.68;101419.09;5031131;28;20053;-67
2022/03/16 08:32:30;;;;;;;8.88;5.63;;;;;;;18.37;15.55;101410.19;5026933;28;20119;-67
2022/03/16 08:34:57;;;;;;;8.73;4.97;;;;;;;19.46;14.67;101410.59;5028708;28;20421;-66
2022/03/16 08:37:24;;;;;;;16.63;6.57;;;;;;;20.62;13.78;101419.50;5031051;28;20053;-66
2022/03/16 08:39:52;;;;;;;10.68;5.93;;;;;;;19.99;14.01;101421.78;5031021;28;20403;-65
2022/03/16 08:45:39;;;;;;;8.45;5.90;;;;;;;19.09;14.46;101413.53;5026353;28;20041;-65
2022/03/16 08:48:07;;;;;;;17.00;5.85;;;;;;;21.07;13.10;101414.50;5031893;28;20064;-65
2022/03/16 08:50:34;;;;;;;10.88;5.40;;;;;;;22.46;12.53;101411.16;5030752;28;20046;-65
2022/03/16 08:53:02;;;;;;;10.40;6.13;;;;;;;23.21;12.24;101414.59;5024660;28;20132;-65
2022/03/16 08:55:29;;;;;;;11.65;5.78;;;;;;;24.14;11.30;101416.13;5027359;28;20459;-65
2022/03/16 08:57:57;;;;;;;9.55;5.95;;;;;;;25.06;10.99;101399.34;5030508;28;20053;-65
2022/03/16 09:00:29;;;;;;;7.75;5.50;;;;;;;26.66;10.23;101408.13;5029730;28;20056;-67
2022/03/16 09:02:57;;;;;;;11.32;6.45;;;;;;;27.76;9.27;101418.13;5028238;28;20500;-65
2022/03/16 09:05:24;;;;;;;10.25;5.72;;;;;;;27.63;9.32;101408.28;5030099;28;20052;-67
2022/03/16 09:07:51;;;;;;;7.93;5.32;;;;;;;27.95;9.39;101406.38;5027680;28;20050;-67
2022/03/16 09:10:18;;;;;;;9.40;6.13;;;;;;;28.98;9.12;101410.91;5031478;28;20091;-65
2022/03/16 09:12:46;;;;;;;8.88;6.47;;;;;;;28.71;8.46;101418.31;5031704;28;20050;-65
2022/03/16 09:15:13;;;;;;;9.90;5.90;;;;;;;27.60;8.66;101411.94;5026766;28;20128;-64
2022/03/16 09:17:40;;;;;;;8.13;6.07;;;;;;;27.79;8.75;101411.59;5030202;28;20051;-64
2022/03/16 09:20:07;;;;;;;9.25;5.82;;;;;;;28.80;8.19;101408.06;5031325;28;20057;-65
2022/03/16 09:22:34;;;;;;;8.35;5.47;;;;;;;29.71;7.96;101402.09;5026790;28;20045;-64
2022/03/16 09:25:01;;;;;;;9.52;5.95;;;;;;;29.84;7.88;101403.25;5022118;28;20053;-65
2022/03/16 09:27:29;;;;;;;12.95;6.68;;;;;;;29.95;7.91;101403.19;5031155;28;20057;-65
2022/03/16 09:29:56;;;;;;;9.77;6.20;;;;;;;29.08;7.54;101402.31;5029501;28;20049;-65
2022/03/16 09:32:23;;;;;;;13.55;6.35;;;;;;;28.39;7.68;101393.31;5030270;28;20129;-64
2022/03/16 09:34:50;;;;;;;12.77;6.50;;;;;;;28.69;7.88;101398.69;5028326;28;20092;-66
2022/03/16 09:37:18;;;;;;;7.78;5.55;;;;;;;28.86;7.53;101392.09;5025661;28;20049;-65
2022/03/16 09:39:46;;;;;;;12.50;6.45;;;;;;;27.88;7.75;101389.16;5027798;28;20528;-66
2022/03/16 09:42:13;;;;;;;9.75;5.82;;;;;;;28.03;8.21;101387.97;5031267;28;20049;-65
2022/03/16 09:44:41;;;;;;;8.07;5.88;;;;;;;28.59;8.29;101399.50;5030535;28;20081;-64
2022/03/16 09:47:11;;;;;;;10.50;5.85;;;;;;;27.35;8.23;101397.53;5029457;28;20400;-65
2022/03/16 09:49:39;;;;;;;8.90;6.28;;;;;;;22.50;10.03;101394.25;5022260;28;20049;-65
2022/03/16 09:52:09;;;;;;;80.30;33.67;;;;;;;18.14;13.00;101395.53;5030185;28;20053;-65
2022/03/16 09:54:36;;;;;;;;;;;;;;;15.99;14.47;101401.44;5032136;28;20479;-65
2022/03/16 09:57:03;;;;;;;13.40;6.82;;;;;;;14.60;15.13;101401.09;5032001;28;19929;-64
2022/03/16 09:59:30;;;;;;;14.70;5.90;;;;;;;12.99;16.23;101408.06;5031539;28;20096;-65
2022/03/16 10:02:10;;;;;;;9.88;5.53;;;;;;;11.49;17.42;101400.44;5031912;28;20072;-65
2022/03/16 10:04:38;;;;;;;9.02;5.63;;;;;;;10.62;18.03;101403.41;5031369;28;20115;-65
2022/03/16 10:07:05;;;;;;;10.77;5.60;;;;;;;9.99;19.14;101407.03;5030981;28;20046;-64
2022/03/16 10:15:18;;;;;;;11.68;5.68;;;;;;;8.00;20.65;101399.16;5031033;28;20516;-65
2022/03/16 10:17:56;;;;;;;10.82;6.75;;;;;;;7.83;21.54;101400.44;5031847;28;20061;-64
2022/03/16 10:20:39;;;;;;;10.77;5.72;;;;;;;7.22;22.66;101405.59;5031569;28;20050;-66
2022/03/16 10:23:16;;;;;;;8.85;5.70;;;;;;;6.89;22.19;101408.66;5031217;28;20053;-65
2022/03/16 10:25:46;;;;;;;12.98;5.70;;;;;;;6.14;23.55;101401.50;5029855;28;20579;-66
2022/03/16 10:28:16;;;;;;;8.55;4.78;;;;;;;5.89;23.76;101412.25;5024524;28;20519;-67
2022/03/16 10:30:52;;;;;;;10.35;4.82;;;;;;;5.75;23.99;101413.69;5029642;28;20103;-66
2022/03/16 10:33:20;;;;;;;8.32;4.32;;;;;;;5.36;24.40;101405.38;5027800;28;20077;-65
2022/03/16 10:36:00;;;;;;;10.20;4.95;;;;;;;5.10;24.84;101414.34;5030731;28;20099;-66
2022/03/16 10:38:30;;;;;;;14.13;5.03;;;;;;;5.03;24.67;101412.84;5025261;28;20049;-64
2022/03/16 10:46:53;;;;;;;14.88;5.45;;;;;;;5.09;24.86;101407.19;5027919;28;20049;-64
2022/03/16 10:49:22;;;;;;;9.68;4.50;;;;;;;5.22;25.16;101406.84;5031304;28;20575;-64
2022/03/16 10:52:00;;;;;;;9.88;4.78;;;;;;;5.47;25.31;101407.22;5032806;28;20516;-63
2022/03/16 10:54:28;;;;;;;15.30;4.32;;;;;;;5.40;25.40;101403.81;5027640;28;20045;-64
2022/03/16 10:56:57;;;;;;;9.15;4.65;;;;;;;5.25;25.40;101395.31;5031996;28;20050;-63
2022/03/16 10:59:30;;;;;;;10.38;3.83;;;;;;;5.09;26.67;101407.19;5022111;28;20120;-62
2022/03/16 11:02:03;;;;;;;8.80;3.83;;;;;;;4.76;26.60;101412.69;5031119;28;20053;-63
2022/03/16 11:04:35;;;;;;;8.88;4.00;;;;;;;4.28;27.03;101404.09;5033609;28;20048;-64
2022/03/16 11:07:04;;;;;;;10.60;4.35;;;;;;;4.07;27.32;101395.66;5026767;28;20091;-64
2022/03/16 11:09:32;;;;;;;11.70;4.30;;;;;;;4.17;26.58;101398.63;5022793;28;20072;-64
2022/03/16 11:14:49;;;;;;;8.85;4.65;;;;;;;3.81;27.32;101399.81;5028414;28;20052;-63
2022/03/16 11:17:17;;;;;;;7.88;4.20;;;;;;;3.49;27.47;101401.31;5033946;28;20131;-64
2022/03/16 11:19:47;;;;;;;15.23;7.65;;;;;;;3.39;27.55;101403.84;5034776;28;20072;-64
2022/03/16 11:22:22;;;;;;;11.00;5.40;;;;;;;3.30;27.83;101397.03;5034369;28;20049;-64
2022/03/16 11:24:56;;;;;;;10.15;4.75;;;;;;;3.32;27.83;101394.88;5032390;28;20132;-64
2022/03/16 11:27:51;;;;;;;8.68;4.72;;;;;;;3.31;28.04;101401.44;5034557;28;20049;-63
2022/03/16 11:30:29;;;;;;;8.77;4.07;;;;;;;3.29;27.96;101403.63;5033582;28;20522;-64
2022/03/16 11:33:01;;;;;;;12.90;4.97;;;;;;;3.14;28.26;101395.81;5034660;28;20083;-64
2022/03/16 11:35:31;;;;;;;10.90;4.93;;;;;;;3.01;28.70;101390.56;5034355;28;20046;-64
2022/03/16 11:38:13;;;;;;;11.32;4.60;;;;;;;3.09;28.68;101392.13;5034597;28;20128;-64
2022/03/16 11:40:43;;;;;;;8.95;4.05;;;;;;;3.10;28.58;101393.78;5033552;28;20147;-64
2022/03/16 11:43:15;;;;;;;;;;;;;;;3.16;28.51;101387.34;5034623;28;20053;-65
2022/03/16 11:45:50;;;;;;;5.43;3.40;;;;;;;3.33;28.71;101399.28;5034236;28;19971;-64
2022/03/16 11:51:08;;;;;;;8.15;4.30;;;;;;;3.83;27.70;101395.72;5032227;28;20057;-65